createdAt,value
2023-03-31T00:02:15.635Z,12.25
2023-03-31T00:04:46.693Z,10.43
2023-03-31T00:07:14.855Z,14.38
2023-03-31T00:09:45.990Z,13.13
2023-03-31T00:12:14.209Z,10.55
2023-03-31T00:14:41.577Z,7.40
2023-03-31T00:17:12.139Z,10.57
2023-03-31T00:19:41.834Z,7.95
2023-03-31T00:22:09.709Z,7.97
2023-03-31T00:24:37.360Z,19.63
2023-03-31T00:27:05.880Z,6.63
2023-03-31T00:29:35.903Z,11.25
2023-03-31T00:32:03.364Z,12.98
2023-03-31T00:34:30.801Z,10.50
2023-03-31T00:37:02.791Z,12.38
2023-03-31T00:39:32.092Z,12.05
2023-03-31T00:41:59.437Z,14.73
2023-03-31T00:44:27.364Z,12.68
2023-03-31T00:47:01.469Z,12.93
2023-03-31T00:49:38.269Z,5.97
2023-03-31T00:52:13.616Z,13.60
2023-03-31T00:54:42.446Z,15.15
2023-03-31T00:57:10.793Z,16.73
2023-03-31T00:59:40.661Z,14.50
2023-03-31T01:02:09.445Z,11.95
2023-03-31T01:04:40.019Z,8.73
2023-03-31T01:07:26.177Z,9.23
2023-03-31T01:09:56.161Z,8.73
2023-03-31T01:12:23.891Z,13.43
2023-03-31T01:14:51.689Z,14.40
2023-03-31T01:17:21.891Z,9.75
2023-03-31T01:22:38.071Z,12.43
2023-03-31T01:25:14.530Z,10.95
2023-03-31T01:28:00.765Z,7.97
2023-03-31T01:30:37.971Z,10.20
2023-03-31T01:33:24.007Z,9.98
2023-03-31T01:35:54.311Z,9.43
2023-03-31T01:38:33.964Z,9.70
2023-03-31T01:41:11.601Z,11.43
2023-03-31T01:43:57.803Z,11.07
2023-03-31T01:46:43.971Z,8.30
2023-03-31T01:49:20.585Z,7.93
2023-03-31T01:51:58.418Z,11.90
2023-03-31T01:54:31.868Z,9.88
2023-03-31T01:57:02.589Z,11.30
2023-03-31T01:59:39.747Z,4.97
2023-03-31T02:02:14.453Z,11.18
2023-03-31T02:04:49.176Z,10.38
2023-03-31T02:07:18.157Z,12.70
2023-03-31T02:09:48.388Z,13.90
2023-03-31T02:12:16.556Z,14.65
2023-03-31T02:14:46.462Z,15.20
2023-03-31T02:17:18.335Z,9.88
2023-03-31T02:19:48.231Z,11.77
2023-03-31T02:22:17.357Z,12.18
2023-03-31T02:24:45.289Z,7.05
2023-03-31T02:27:21.845Z,11.32
2023-03-31T02:29:49.801Z,12.70
2023-03-31T02:32:23.089Z,13.25
2023-03-31T02:34:50.406Z,10.50
2023-03-31T02:37:17.821Z,15.73
2023-03-31T02:39:47.365Z,8.65
2023-03-31T02:42:14.849Z,15.90
2023-03-31T02:44:42.340Z,11.55
2023-03-31T02:47:12.407Z,14.65
2023-03-31T02:49:41.190Z,14.65
2023-03-31T02:52:16.229Z,11.48
2023-03-31T02:54:53.522Z,14.13
2023-03-31T02:57:21.065Z,12.65
2023-03-31T03:00:08.539Z,13.38
2023-03-31T03:03:00.715Z,12.63
2023-03-31T03:05:34.928Z,11.50
2023-03-31T03:08:50.498Z,10.57
2023-03-31T03:11:27.542Z,12.48
2023-03-31T03:14:14.781Z,10.70
2023-03-31T03:16:44.630Z,12.88
2023-03-31T03:19:18.413Z,14.73
2023-03-31T03:21:47.453Z,9.32
2023-03-31T03:24:18.066Z,13.48
2023-03-31T03:26:45.940Z,14.10
2023-03-31T03:29:14.877Z,13.45
2023-03-31T03:31:45.200Z,12.73
2023-03-31T03:36:39.916Z,9.48
2023-03-31T03:39:08.113Z,11.90
2023-03-31T03:41:35.960Z,13.38
2023-03-31T03:44:03.230Z,13.55
2023-03-31T03:46:30.520Z,13.13
2023-03-31T03:48:57.800Z,11.20
2023-03-31T03:51:24.994Z,13.95
2023-03-31T03:53:52.196Z,18.73
2023-03-31T03:56:19.368Z,9.48
2023-03-31T03:58:46.539Z,8.98
2023-03-31T04:01:14.628Z,12.35
2023-03-31T04:03:41.744Z,12.80
2023-03-31T04:06:09.111Z,11.82
2023-03-31T04:08:37.019Z,9.05
2023-03-31T04:11:04.405Z,13.68
2023-03-31T04:13:31.550Z,9.05
2023-03-31T04:15:58.725Z,12.77
2023-03-31T04:18:25.850Z,10.40
2023-03-31T04:21:12.413Z,9.57
2023-03-31T04:23:46.873Z,10.57
2023-03-31T04:26:15.549Z,9.57
2023-03-31T04:28:46.759Z,5.75
2023-03-31T04:31:15.525Z,7.90
2023-03-31T04:33:46.324Z,5.72
2023-03-31T04:36:18.047Z,12.07
2023-03-31T04:38:47.060Z,11.18
2023-03-31T04:41:14.997Z,10.65
2023-03-31T04:43:42.474Z,10.45
2023-03-31T04:46:10.583Z,9.68
2023-03-31T04:48:37.842Z,10.18
2023-03-31T04:51:05.193Z,8.38
2023-03-31T04:53:32.350Z,10.88
2023-03-31T04:55:59.855Z,5.78
2023-03-31T04:58:27.234Z,12.95
2023-03-31T05:00:54.723Z,11.57
2023-03-31T05:03:22.153Z,8.10
2023-03-31T05:05:49.692Z,5.65
2023-03-31T05:08:17.039Z,5.95
2023-03-31T05:10:44.502Z,9.57
2023-03-31T05:13:12.077Z,10.80
2023-03-31T05:15:39.728Z,8.10
2023-03-31T05:18:08.072Z,9.10
2023-03-31T05:20:35.716Z,10.90
2023-03-31T05:23:03.146Z,11.85
2023-03-31T05:25:33.439Z,13.10
2023-03-31T05:28:02.860Z,8.73
2023-03-31T05:30:30.571Z,10.25
2023-03-31T05:32:57.752Z,12.90
2023-03-31T05:35:25.266Z,13.20
2023-03-31T05:37:52.784Z,10.40
2023-03-31T05:40:20.202Z,11.10
2023-03-31T05:42:47.336Z,6.88
2023-03-31T05:45:14.988Z,8.25
2023-03-31T05:47:42.143Z,9.15
2023-03-31T05:50:10.603Z,6.50
2023-03-31T05:52:39.072Z,11.88
2023-03-31T05:55:06.601Z,10.93
2023-03-31T05:57:34.047Z,9.25
2023-03-31T06:00:01.221Z,10.05
2023-03-31T06:02:28.539Z,6.18
2023-03-31T06:04:55.979Z,3.60
2023-03-31T06:07:25.175Z,9.98
2023-03-31T06:09:52.628Z,9.82
2023-03-31T06:12:19.729Z,8.43
2023-03-31T06:14:46.922Z,8.63
2023-03-31T06:17:14.033Z,9.52
2023-03-31T06:19:41.186Z,8.80
2023-03-31T06:22:08.406Z,3.95
2023-03-31T06:24:35.675Z,8.15
2023-03-31T06:27:03.894Z,6.63
2023-03-31T06:29:31.151Z,9.93
2023-03-31T06:31:58.726Z,6.50
2023-03-31T06:34:25.945Z,9.52
2023-03-31T06:36:53.438Z,4.25
2023-03-31T06:39:20.881Z,5.95
2023-03-31T06:41:48.120Z,3.55
2023-03-31T06:44:24.739Z,8.48
2023-03-31T06:46:51.860Z,7.75
2023-03-31T06:49:19.086Z,9.90
2023-03-31T06:51:46.274Z,10.27
2023-03-31T06:54:13.455Z,4.30
2023-03-31T06:56:41.046Z,6.72
2023-03-31T06:59:10.499Z,5.57
2023-03-31T07:01:39.307Z,3.38
2023-03-31T07:04:06.903Z,4.82
2023-03-31T07:06:35.046Z,2.47
2023-03-31T07:09:02.265Z,4.30
2023-03-31T07:11:29.495Z,4.13
2023-03-31T07:13:56.753Z,3.60
2023-03-31T07:16:24.046Z,2.22
2023-03-31T07:18:54.795Z,5.85
2023-03-31T07:21:21.957Z,5.18
2023-03-31T07:23:49.370Z,4.28
2023-03-31T07:26:16.739Z,2.97
2023-03-31T07:28:43.908Z,3.97
2023-03-31T07:31:11.626Z,6.82
2023-03-31T07:33:38.930Z,2.40
2023-03-31T07:36:12.729Z,2.10
2023-03-31T07:38:42.609Z,8.95
2023-03-31T07:41:13.428Z,6.80
2023-03-31T07:43:40.852Z,5.40
2023-03-31T07:46:15.126Z,2.85
2023-03-31T07:48:43.920Z,6.63
2023-03-31T07:51:11.286Z,7.38
2023-03-31T07:53:38.587Z,7.38
2023-03-31T07:56:06.026Z,8.48
2023-03-31T07:58:33.305Z,7.88
2023-03-31T08:01:01.070Z,4.88
2023-03-31T08:03:28.247Z,5.70
2023-03-31T08:05:55.802Z,8.60
2023-03-31T08:08:23.094Z,4.68
2023-03-31T08:10:50.940Z,7.10
2023-03-31T08:13:18.266Z,5.40
2023-03-31T08:15:45.749Z,4.32
2023-03-31T08:18:13.464Z,6.53
2023-03-31T08:20:41.183Z,6.53
2023-03-31T08:23:11.366Z,11.27
2023-03-31T08:25:38.768Z,5.25
2023-03-31T08:28:06.846Z,8.23
2023-03-31T08:30:34.669Z,7.97
2023-03-31T08:33:02.091Z,9.23
2023-03-31T08:35:29.606Z,6.93
2023-03-31T08:37:56.721Z,7.82
2023-03-31T08:40:25.686Z,11.68
2023-03-31T08:43:13.287Z,6.55
2023-03-31T08:45:43.598Z,9.80
2023-03-31T08:48:29.704Z,11.20
2023-03-31T08:51:01.161Z,12.30
2023-03-31T08:53:48.145Z,12.23
2023-03-31T08:56:20.076Z,8.18
2023-03-31T08:58:48.958Z,9.63
2023-03-31T09:01:28.682Z,8.82
2023-03-31T09:03:59.217Z,9.70
2023-03-31T09:06:38.167Z,9.63
2023-03-31T09:09:08.756Z,15.23
2023-03-31T09:11:37.399Z,11.00
2023-03-31T09:14:13.470Z,12.98
2023-03-31T09:16:47.132Z,16.92
2023-03-31T09:19:36.244Z,17.13
2023-03-31T09:22:10.926Z,14.55
2023-03-31T09:24:46.286Z,15.93
2023-03-31T09:27:13.542Z,10.63
2023-03-31T09:29:44.128Z,11.93
2023-03-31T09:32:22.193Z,14.60
2023-03-31T09:34:53.491Z,19.45
2023-03-31T09:37:20.949Z,17.77
2023-03-31T09:39:48.108Z,17.15
2023-03-31T09:42:15.573Z,17.08
2023-03-31T09:44:52.491Z,16.40
2023-03-31T09:47:19.708Z,13.43
2023-03-31T09:49:53.616Z,14.10
2023-03-31T09:52:21.570Z,8.32
2023-03-31T09:54:52.828Z,13.10
2023-03-31T09:57:36.933Z,14.32
2023-03-31T10:00:16.006Z,11.65
2023-03-31T10:02:49.330Z,14.32
2023-03-31T10:05:22.534Z,14.35
2023-03-31T10:07:49.757Z,10.20
2023-03-31T10:10:26.654Z,11.00
2023-03-31T10:12:53.949Z,13.60
2023-03-31T10:15:27.315Z,12.93
2023-03-31T10:17:55.677Z,15.85
2023-03-31T10:20:29.082Z,9.82
2023-03-31T10:22:56.482Z,9.93
2023-03-31T10:25:28.388Z,13.93
2023-03-31T10:27:56.739Z,10.48
2023-03-31T10:30:30.462Z,14.07
2023-03-31T10:33:05.650Z,13.23
2023-03-31T10:35:39.072Z,11.13
2023-03-31T10:38:14.832Z,9.70
2023-03-31T10:40:55.646Z,13.10
2023-03-31T10:43:30.280Z,12.00
2023-03-31T10:46:00.587Z,11.10
2023-03-31T10:48:31.182Z,12.18
2023-03-31T10:51:18.199Z,10.75
2023-03-31T10:53:49.556Z,10.45
2023-03-31T10:56:35.832Z,7.15
2023-03-31T10:59:19.787Z,8.30
2023-03-31T11:01:54.159Z,8.65
2023-03-31T11:04:47.664Z,11.48
2023-03-31T11:07:27.737Z,13.65
2023-03-31T11:10:09.813Z,12.07
2023-03-31T11:12:37.130Z,11.20
2023-03-31T11:15:25.665Z,7.38
2023-03-31T11:17:52.919Z,11.50
2023-03-31T11:20:20.212Z,11.13
2023-03-31T11:22:53.154Z,13.20
2023-03-31T11:25:23.023Z,13.07
2023-03-31T11:28:02.094Z,7.25
2023-03-31T11:30:29.564Z,12.18
2023-03-31T11:33:12.042Z,12.52
2023-03-31T11:35:59.676Z,12.48
2023-03-31T11:38:38.257Z,7.55
2023-03-31T11:41:08.950Z,10.85
2023-03-31T11:43:49.307Z,13.73
2023-03-31T11:46:16.511Z,13.25
2023-03-31T11:48:47.148Z,12.95
2023-03-31T11:51:22.842Z,9.18
2023-03-31T11:53:52.506Z,12.82
2023-03-31T11:56:20.560Z,11.00
2023-03-31T11:58:56.255Z,8.07
2023-03-31T12:01:43.250Z,8.82
2023-03-31T12:04:20.186Z,12.27
2023-03-31T12:06:49.327Z,4.80
2023-03-31T12:09:52.090Z,7.88
2023-03-31T12:12:30.909Z,7.90
2023-03-31T12:15:03.754Z,7.35
2023-03-31T12:17:32.774Z,9.07
2023-03-31T12:20:02.228Z,9.93
2023-03-31T12:22:37.978Z,9.90
2023-03-31T12:25:05.566Z,8.73
2023-03-31T12:27:40.335Z,8.18
2023-03-31T12:30:11.625Z,8.98
2023-03-31T12:32:42.723Z,10.90
2023-03-31T12:35:25.079Z,12.38
2023-03-31T12:38:12.056Z,11.60
2023-03-31T12:40:39.660Z,9.30
2023-03-31T12:43:24.540Z,12.27
2023-03-31T12:46:10.821Z,10.77
2023-03-31T12:48:43.729Z,7.15
2023-03-31T12:51:10.513Z,9.13
2023-03-31T12:54:02.015Z,9.23
2023-03-31T12:56:29.286Z,10.63
2023-03-31T12:59:16.545Z,10.93
2023-03-31T13:02:06.832Z,9.25
2023-03-31T13:04:34.093Z,11.75
2023-03-31T13:07:01.516Z,9.30
2023-03-31T13:09:31.595Z,4.75
2023-03-31T13:11:58.851Z,10.20
2023-03-31T13:14:39.193Z,10.20
2023-03-31T13:17:22.850Z,8.38
2023-03-31T13:19:51.255Z,10.32
2023-03-31T13:22:35.735Z,11.60
2023-03-31T13:25:21.553Z,10.57
2023-03-31T13:27:53.667Z,14.30
2023-03-31T13:30:39.251Z,12.20
2023-03-31T13:33:11.042Z,14.77
2023-03-31T13:35:40.158Z,13.50
2023-03-31T13:38:15.371Z,11.82
2023-03-31T13:40:45.626Z,15.68
2023-03-31T13:45:55.590Z,12.95
2023-03-31T13:48:26.344Z,7.82
2023-03-31T13:51:12.572Z,5.63
2023-03-31T13:54:04.214Z,5.05
2023-03-31T13:56:48.600Z,7.88
2023-03-31T13:59:27.209Z,27.58
2023-03-31T14:02:13.109Z,10.57
2023-03-31T14:04:48.124Z,9.45
2023-03-31T14:07:41.800Z,14.30
2023-03-31T14:10:22.496Z,10.15
2023-03-31T14:12:49.899Z,8.40
2023-03-31T14:15:21.475Z,9.75
2023-03-31T14:17:49.034Z,12.80
2023-03-31T14:20:22.371Z,12.38
2023-03-31T14:23:06.663Z,12.73
2023-03-31T14:25:33.881Z,13.63
2023-03-31T14:28:13.865Z,12.27
2023-03-31T14:30:53.791Z,5.78
2023-03-31T14:33:38.782Z,13.85
2023-03-31T14:36:28.611Z,12.43
2023-03-31T14:39:02.159Z,14.48
2023-03-31T14:41:32.524Z,10.35
2023-03-31T14:44:02.479Z,6.35
2023-03-31T14:46:34.748Z,12.57
2023-03-31T14:49:07.422Z,9.57
2023-03-31T14:51:34.894Z,9.57
2023-03-31T14:54:02.943Z,9.73
2023-03-31T14:56:39.222Z,7.10
2023-03-31T14:59:07.856Z,8.05
2023-03-31T15:01:39.932Z,9.63
2023-03-31T15:04:12.762Z,6.13
2023-03-31T15:06:42.153Z,8.35
2023-03-31T15:09:18.725Z,3.50
2023-03-31T15:11:47.818Z,9.50
2023-03-31T15:14:15.371Z,4.05
2023-03-31T15:16:43.663Z,9.13
2023-03-31T15:19:15.657Z,6.53
2023-03-31T15:21:43.398Z,7.75
2023-03-31T15:24:21.864Z,7.15
2023-03-31T15:26:53.499Z,6.63
2023-03-31T15:29:23.141Z,6.93
2023-03-31T15:31:50.484Z,7.20
2023-03-31T15:34:28.327Z,7.28
2023-03-31T15:36:56.921Z,6.32
2023-03-31T15:39:25.331Z,6.30
2023-03-31T15:41:53.658Z,4.68
2023-03-31T15:44:35.872Z,7.70
2023-03-31T15:47:07.690Z,4.60
2023-03-31T15:49:35.414Z,5.72
2023-03-31T15:52:03.355Z,6.18
2023-03-31T15:54:30.634Z,4.95
2023-03-31T15:57:01.588Z,10.80
2023-03-31T16:02:20.220Z,5.80
2023-03-31T16:04:51.485Z,8.20
2023-03-31T16:07:22.540Z,5.65
2023-03-31T16:10:04.674Z,6.72
2023-03-31T16:12:44.658Z,6.93
2023-03-31T16:15:18.490Z,6.57
2023-03-31T16:17:54.880Z,5.32
2023-03-31T16:20:24.730Z,5.65
2023-03-31T16:22:59.886Z,11.70
2023-03-31T16:25:28.956Z,9.63
2023-03-31T16:27:58.704Z,7.53
2023-03-31T16:30:46.225Z,3.70
2023-03-31T16:33:19.137Z,4.55
2023-03-31T16:38:44.416Z,5.35
2023-03-31T16:41:17.832Z,5.70
2023-03-31T16:43:56.726Z,6.97
2023-03-31T16:46:28.611Z,4.45
2023-03-31T16:48:57.910Z,3.97
2023-03-31T16:51:25.448Z,6.40
2023-03-31T16:53:52.867Z,6.95
2023-03-31T16:56:21.900Z,5.57
2023-03-31T16:58:49.192Z,5.10
2023-03-31T17:01:16.535Z,4.03
2023-03-31T17:03:43.875Z,9.30
2023-03-31T17:06:12.571Z,4.53
2023-03-31T17:08:40.459Z,6.18
2023-03-31T17:11:10.943Z,5.38
2023-03-31T17:13:39.063Z,4.72
2023-03-31T17:16:16.418Z,7.72
2023-03-31T17:18:46.540Z,5.70
2023-03-31T17:21:15.108Z,8.35
2023-03-31T17:23:42.756Z,7.03
2023-03-31T17:26:10.616Z,6.13
2023-03-31T17:28:38.082Z,5.32
2023-03-31T17:31:15.749Z,5.88
2023-03-31T17:33:45.067Z,4.57
2023-03-31T17:36:12.384Z,5.68
2023-03-31T17:38:39.986Z,6.45
2023-03-31T17:41:08.315Z,6.20
2023-03-31T17:43:44.240Z,6.75
2023-03-31T17:46:16.197Z,7.00
2023-03-31T17:48:43.829Z,6.50
2023-03-31T17:51:15.105Z,7.15
2023-03-31T17:53:44.245Z,7.15
2023-03-31T17:56:11.755Z,5.43
2023-03-31T17:58:39.557Z,7.28
2023-03-31T18:01:07.847Z,5.90
2023-03-31T18:03:35.652Z,8.88
2023-03-31T18:06:04.529Z,7.90
2023-03-31T18:08:32.416Z,8.02
2023-03-31T18:10:59.681Z,7.63
2023-03-31T18:13:26.978Z,7.65
2023-03-31T18:15:55.626Z,5.60
2023-03-31T18:18:23.605Z,7.13
2023-03-31T18:20:50.980Z,9.13
2023-03-31T18:23:18.139Z,7.60
2023-03-31T18:25:46.524Z,11.05
2023-03-31T18:28:14.690Z,6.43
2023-03-31T18:30:43.496Z,9.80
2023-03-31T18:33:12.769Z,9.57
2023-03-31T18:35:40.213Z,6.47
2023-03-31T18:38:08.801Z,8.40
2023-03-31T18:40:36.861Z,8.10
2023-03-31T18:43:04.481Z,7.95
2023-03-31T18:45:31.943Z,11.25
2023-03-31T18:47:59.488Z,10.23
2023-03-31T18:50:28.249Z,8.57
2023-03-31T18:52:55.440Z,11.73
2023-03-31T18:55:23.248Z,11.57
2023-03-31T18:57:50.697Z,15.80
2023-03-31T19:00:18.852Z,9.55
2023-03-31T19:02:47.079Z,15.57
2023-03-31T19:05:14.470Z,11.88
2023-03-31T19:07:41.962Z,10.57
2023-03-31T19:10:09.547Z,12.70
2023-03-31T19:12:37.402Z,15.88
2023-03-31T19:15:04.950Z,7.68
2023-03-31T19:17:32.159Z,11.57
2023-03-31T19:19:59.558Z,16.52
2023-03-31T19:22:27.673Z,18.85
2023-03-31T19:24:57.269Z,11.95
2023-03-31T19:27:25.479Z,11.25
2023-03-31T19:29:52.849Z,13.70
2023-03-31T19:32:20.186Z,12.07
2023-03-31T19:34:48.048Z,10.25
2023-03-31T19:37:15.729Z,10.32
2023-03-31T19:39:42.996Z,14.63
2023-03-31T19:42:10.725Z,8.65
2023-03-31T19:44:38.245Z,12.90
2023-03-31T19:47:05.552Z,13.57
2023-03-31T19:49:33.364Z,10.30
2023-03-31T19:52:00.937Z,19.05
2023-03-31T19:54:27.878Z,7.78
2023-03-31T19:56:55.842Z,15.95
2023-03-31T19:59:23.019Z,14.15
2023-03-31T20:01:50.672Z,10.77
2023-03-31T20:04:19.082Z,11.38
2023-03-31T20:06:48.368Z,15.07
2023-03-31T20:11:45.681Z,14.20
2023-03-31T20:14:15.131Z,15.82
2023-03-31T20:16:42.750Z,11.18
2023-03-31T20:19:12.999Z,12.93
2023-03-31T20:21:40.772Z,17.65
2023-03-31T20:24:08.500Z,7.88
2023-03-31T20:26:36.142Z,11.05
2023-03-31T20:29:04.097Z,15.57
2023-03-31T20:31:32.834Z,12.63
2023-03-31T20:34:00.694Z,8.88
2023-03-31T20:36:29.769Z,14.15
2023-03-31T20:38:57.226Z,11.82
2023-03-31T20:41:26.565Z,13.95
2023-03-31T20:43:54.292Z,12.60
2023-03-31T20:46:22.450Z,17.90
2023-03-31T20:48:51.497Z,12.35
2023-03-31T20:51:20.559Z,15.48
2023-03-31T20:53:48.751Z,15.80
2023-03-31T20:56:19.791Z,18.20
2023-03-31T20:58:50.814Z,12.05
2023-03-31T21:01:18.511Z,16.45
2023-03-31T21:03:46.332Z,13.43
2023-03-31T21:06:14.961Z,13.45
2023-03-31T21:08:43.169Z,10.48
2023-03-31T21:11:10.925Z,14.95
2023-03-31T21:13:38.703Z,11.90
2023-03-31T21:16:06.872Z,12.23
2023-03-31T21:18:37.399Z,9.70
2023-03-31T21:21:08.409Z,14.43
2023-03-31T21:23:36.008Z,14.18
2023-03-31T21:26:04.221Z,14.52
2023-03-31T21:28:32.344Z,13.50
2023-03-31T21:31:09.905Z,11.95
2023-03-31T21:33:38.409Z,13.10
2023-03-31T21:36:08.548Z,10.80
2023-03-31T21:38:36.300Z,10.35
2023-03-31T21:41:14.327Z,6.95
2023-03-31T21:43:41.863Z,8.95
2023-03-31T21:46:09.414Z,11.90
2023-03-31T21:48:37.214Z,9.40
2023-03-31T21:51:04.681Z,7.57
2023-03-31T21:53:32.274Z,11.43
2023-03-31T21:55:59.771Z,11.70
2023-03-31T21:58:28.757Z,10.15
2023-03-31T22:00:57.577Z,9.85
2023-03-31T22:03:29.132Z,9.80
2023-03-31T22:05:57.288Z,6.18
2023-03-31T22:08:25.272Z,10.15
2023-03-31T22:10:53.106Z,7.97
2023-03-31T22:13:21.406Z,9.32
2023-03-31T22:15:48.573Z,10.63
2023-03-31T22:18:17.512Z,7.22
2023-03-31T22:20:45.472Z,7.00
2023-03-31T22:23:12.780Z,8.35
2023-03-31T22:25:40.102Z,12.18
2023-03-31T22:28:07.887Z,15.75
2023-03-31T22:30:35.455Z,14.70
2023-03-31T22:33:02.421Z,9.50
2023-03-31T22:35:29.690Z,14.32
2023-03-31T22:37:57.385Z,16.85
2023-03-31T22:40:24.780Z,15.90
2023-03-31T22:42:54.698Z,14.23
2023-03-31T22:45:22.100Z,6.72
2023-03-31T22:47:49.501Z,16.17
2023-03-31T22:50:17.271Z,12.90
2023-03-31T22:52:45.451Z,17.42
2023-03-31T22:55:12.848Z,13.10
2023-03-31T22:57:40.377Z,13.45
2023-03-31T23:00:08.045Z,8.60
2023-03-31T23:02:35.772Z,7.53
2023-03-31T23:05:03.405Z,18.23
2023-03-31T23:07:30.517Z,21.52
2023-03-31T23:09:57.871Z,16.95
2023-03-31T23:12:26.266Z,14.40
2023-03-31T23:14:55.033Z,21.45
2023-03-31T23:17:23.687Z,20.40
2023-03-31T23:19:51.311Z,15.15
2023-03-31T23:22:19.503Z,22.55
2023-03-31T23:24:49.407Z,16.67
2023-03-31T23:27:17.883Z,22.52
2023-03-31T23:29:46.061Z,17.63
2023-03-31T23:32:14.558Z,19.58
2023-03-31T23:34:42.207Z,20.25
2023-03-31T23:37:10.846Z,19.02
2023-03-31T23:39:38.995Z,14.68
2023-03-31T23:42:10.414Z,21.33
2023-03-31T23:44:37.887Z,35.53
2023-03-31T23:47:06.185Z,23.52
2023-03-31T23:49:33.760Z,18.90
2023-03-31T23:52:01.482Z,22.50
2023-03-31T23:54:31.403Z,16.83
2023-03-31T23:56:58.778Z,26.90
2023-03-31T23:59:26.322Z,20.83
